Time;durP1;ratioP1;P1;durP2;ratioP2;P2;SDS_P1;SDS_P2;PMS_P1;PMS_P2;Temp;Humidity;BMP_temperature;BMP_pressure;BME280_temperature;BME280_humidity;BME280_pressure;Samples;Min_cycle;Max_cycle;Signal;HPM_P1;HPM_P2
2021/08/04 00:01:07;;;;;;;5.63;2.63;;;15.10;99.90;;;;;;5049250;28;20601;-71
2021/08/04 00:03:35;;;;;;;6.07;2.95;;;15.00;99.90;;;;;;5049943;28;20021;-71
2021/08/04 00:06:00;;;;;;;8.07;5.50;;;15.00;99.90;;;;;;5049761;28;20064;-71
2021/08/04 00:08:26;;;;;;;14.85;6.30;;;15.00;99.90;;;;;;5030766;28;20110;-71
2021/08/04 00:10:54;;;;;;;10.55;6.43;;;15.00;99.90;;;;;;5049766;28;20049;-71
2021/08/04 00:13:22;;;;;;;9.55;5.40;;;15.00;99.90;;;;;;5047628;28;20051;-71
2021/08/04 00:15:47;;;;;;;10.57;5.50;;;15.00;99.90;;;;;;5030683;28;20128;-71
2021/08/04 00:18:13;;;;;;;12.70;6.03;;;15.00;99.90;;;;;;5048242;28;21862;-71
2021/08/04 00:20:41;;;;;;;10.02;5.82;;;15.00;99.90;;;;;;5050674;28;20029;-71
2021/08/04 00:23:07;;;;;;;13.07;7.65;;;15.00;99.90;;;;;;5031242;28;20062;-71
2021/08/04 00:25:32;;;;;;;14.30;8.40;;;15.00;99.90;;;;;;5064919;28;20107;-68
2021/08/04 00:28:00;;;;;;;10.32;6.85;;;15.00;99.90;;;;;;5064393;28;20048;-69
2021/08/04 00:30:26;;;;;;;14.63;9.13;;;15.10;99.90;;;;;;5030619;28;20067;-71
2021/08/04 00:32:54;;;;;;;10.27;7.07;;;15.00;99.90;;;;;;5030875;28;20507;-71
2021/08/04 00:35:22;;;;;;;17.33;9.23;;;15.00;99.90;;;;;;5046680;28;20021;-72
2021/08/04 00:37:48;;;;;;;21.58;12.07;;;15.10;99.90;;;;;;5064050;28;20468;-71
2021/08/04 00:40:13;;;;;;;23.73;13.60;;;15.00;99.90;;;;;;5002580;28;20024;-71
2021/08/04 00:42:41;;;;;;;24.15;13.60;;;15.10;99.90;;;;;;5063953;28;20112;-71
2021/08/04 00:45:08;;;;;;;27.67;14.75;;;15.10;99.90;;;;;;5047384;28;20037;-71
2021/08/04 00:47:36;;;;;;;24.10;15.10;;;15.10;99.90;;;;;;5031472;28;20082;-71
2021/08/04 00:50:02;;;;;;;39.05;13.50;;;15.10;99.90;;;;;;5047650;28;20028;-71
2021/08/04 00:52:28;;;;;;;20.63;12.45;;;15.10;99.90;;;;;;5030461;28;20112;-71
2021/08/04 00:54:53;;;;;;;18.45;11.43;;;15.10;99.90;;;;;;5047864;28;20043;-71
2021/08/04 00:57:21;;;;;;;23.23;12.50;;;15.10;99.90;;;;;;5048774;28;20393;-72
2021/08/04 00:59:49;;;;;;;25.27;13.40;;;15.10;99.90;;;;;;5047668;28;20063;-71
2021/08/04 01:02:21;;;;;;;24.08;12.48;;;15.20;99.90;;;;;;5014405;28;20115;-72
2021/08/04 01:04:51;;;;;;;20.85;12.45;;;15.20;99.90;;;;;;5062432;28;20420;-72
2021/08/04 01:07:21;;;;;;;33.47;12.10;;;15.20;99.90;;;;;;5064094;28;20029;-72
2021/08/04 01:10:16;;;;;;;23.00;11.48;;;15.20;99.90;;;;;;5030291;28;20037;-70
2021/08/04 01:12:44;;;;;;;30.48;12.07;;;15.20;99.90;;;;;;5030191;28;20407;-70
2021/08/04 01:15:10;;;;;;;45.20;10.63;;;15.20;99.90;;;;;;5029195;28;20695;-70
2021/08/04 01:17:40;;;;;;;79.72;11.50;;;15.20;99.90;;;;;;5030520;28;20036;-70
2021/08/04 01:20:13;;;;;;;32.15;9.25;;;15.10;99.90;;;;;;5047104;28;20048;-70
2021/08/04 01:23:03;;;;;;;74.13;10.98;;;15.10;99.90;;;;;;5047373;28;20033;-70
2021/08/04 01:25:33;;;;;;;32.42;9.20;;;15.10;99.90;;;;;;5030483;28;20037;-70
2021/08/04 01:28:17;;;;;;;29.20;8.75;;;15.10;99.90;;;;;;5030106;28;20090;-70
2021/08/04 01:30:46;;;;;;;32.20;8.63;;;15.10;99.90;;;;;;5048257;28;20599;-70
2021/08/04 01:33:13;;;;;;;17.35;7.45;;;15.10;99.90;;;;;;5046568;28;20036;-70
2021/08/04 01:35:38;;;;;;;9.75;6.07;;;15.10;99.90;;;;;;5029518;28;20033;-70
2021/08/04 01:38:06;;;;;;;12.77;7.82;;;15.10;99.90;;;;;;5046069;28;20369;-70
2021/08/04 01:40:34;;;;;;;9.25;5.68;;;15.10;99.90;;;;;;5029648;28;20032;-70
2021/08/04 01:43:00;;;;;;;11.98;6.43;;;15.10;99.90;;;;;;5046069;28;20553;-70
2021/08/04 01:45:25;;;;;;;10.02;6.13;;;15.10;99.90;;;;;;5029834;28;20036;-70
2021/08/04 01:47:51;;;;;;;16.80;6.60;;;15.10;99.90;;;;;;5046157;28;20112;-69
2021/08/04 01:50:17;;;;;;;13.00;6.30;;;15.00;99.90;;;;;;5029327;28;20025;-69
2021/08/04 01:52:42;;;;;;;8.68;5.78;;;15.00;99.90;;;;;;5046003;28;20374;-70
2021/08/04 01:55:12;;;;;;;12.80;4.93;;;14.90;99.90;;;;;;5028935;28;20087;-70
2021/08/04 01:57:40;;;;;;;10.68;5.30;;;14.90;99.90;;;;;;5014631;28;20033;-70
2021/08/04 02:00:06;;;;;;;13.35;5.50;;;14.90;99.90;;;;;;5012212;28;20056;-70
2021/08/04 02:02:34;;;;;;;10.07;5.80;;;14.90;99.90;;;;;;5029580;28;20075;-69
2021/08/04 02:05:02;;;;;;;10.77;6.05;;;14.90;99.90;;;;;;5048514;28;20049;-70
2021/08/04 02:07:36;;;;;;;20.88;7.82;;;14.90;99.90;;;;;;5046583;28;20047;-69
2021/08/04 02:10:03;;;;;;;18.20;7.78;;;14.80;99.90;;;;;;5046695;28;20063;-70
2021/08/04 02:12:32;;;;;;;13.45;7.72;;;14.80;99.90;;;;;;5029602;28;20048;-70
2021/08/04 02:15:01;;;;;;;22.80;7.72;;;14.80;99.90;;;;;;5045915;28;20045;-70
2021/08/04 02:17:34;;;;;;;15.93;7.22;;;14.80;99.90;;;;;;5061752;28;20373;-70
2021/08/04 02:20:13;;;;;;;15.55;7.72;;;14.80;99.90;;;;;;5028157;28;20029;-70
2021/08/04 02:22:42;;;;;;;16.80;7.80;;;14.80;99.90;;;;;;5029469;28;20457;-70
2021/08/04 02:25:14;;;;;;;20.20;8.10;;;14.90;99.90;;;;;;5062836;28;20036;-70
2021/08/04 02:27:42;;;;;;;14.65;7.03;;;14.80;99.90;;;;;;5046069;28;20021;-70
2021/08/04 02:30:09;;;;;;;22.52;8.02;;;14.80;99.90;;;;;;5045543;28;20454;-70
2021/08/04 02:32:35;;;;;;;16.40;7.55;;;14.80;99.90;;;;;;5062373;28;20028;-70
2021/08/04 02:35:01;;;;;;;16.85;5.22;;;14.80;99.90;;;;;;5062362;28;20043;-70
2021/08/04 02:37:29;;;;;;;11.68;5.90;;;14.80;99.90;;;;;;5063954;28;20029;-70
2021/08/04 02:39:55;;;;;;;12.30;6.15;;;14.80;99.90;;;;;;5047795;28;20462;-70
2021/08/04 02:42:20;;;;;;;8.80;5.10;;;14.80;99.90;;;;;;5029810;28;20032;-70
2021/08/04 02:44:46;;;;;;;11.43;5.97;;;14.80;99.90;;;;;;5045934;28;20060;-70
2021/08/04 02:47:14;;;;;;;7.90;5.40;;;14.80;99.90;;;;;;5062219;28;20040;-70
2021/08/04 02:49:43;;;;;;;11.45;5.68;;;14.70;99.90;;;;;;5060611;28;20356;-70
2021/08/04 02:52:09;;;;;;;12.23;5.80;;;14.70;99.90;;;;;;5045229;28;20029;-70
2021/08/04 02:54:37;;;;;;;8.90;5.22;;;14.70;99.90;;;;;;5045254;28;20033;-70
2021/08/04 02:57:04;;;;;;;8.70;5.30;;;14.70;99.90;;;;;;5028620;28;20062;-70
2021/08/04 02:59:32;;;;;;;10.57;5.65;;;14.70;99.90;;;;;;5061847;28;20056;-69
2021/08/04 03:01:57;;;;;;;9.10;5.47;;;14.60;99.90;;;;;;5045977;28;20040;-70
2021/08/04 03:04:27;;;;;;;9.27;5.88;;;14.60;99.90;;;;;;5045544;28;20029;-70
2021/08/04 03:06:53;;;;;;;7.97;5.50;;;14.50;99.90;;;;;;5046373;28;20025;-70
2021/08/04 03:09:21;;;;;;;7.93;5.53;;;14.50;99.90;;;;;;5033496;28;20040;-70
2021/08/04 03:11:46;;;;;;;11.13;5.90;;;14.50;99.90;;;;;;5061872;28;20442;-70
2021/08/04 03:14:12;;;;;;;12.15;6.32;;;14.50;99.90;;;;;;5028180;28;20040;-70
2021/08/04 03:16:38;;;;;;;10.82;5.43;;;14.50;99.90;;;;;;5029683;28;20039;-70
2021/08/04 03:19:06;;;;;;;9.70;4.90;;;14.50;99.90;;;;;;5046484;28;20041;-70
2021/08/04 03:21:36;;;;;;;8.70;4.60;;;14.50;99.90;;;;;;5044611;28;20039;-70
2021/08/04 03:24:04;;;;;;;9.60;4.85;;;14.40;99.90;;;;;;5045226;28;20083;-70
2021/08/04 03:26:32;;;;;;;7.93;4.13;;;14.40;99.90;;;;;;5027375;28;20094;-70
2021/08/04 03:29:00;;;;;;;7.22;3.85;;;14.40;99.90;;;;;;5046052;28;20615;-69
2021/08/04 03:31:28;;;;;;;8.30;4.25;;;14.40;99.90;;;;;;5046012;28;20037;-70
2021/08/04 03:33:56;;;;;;;9.75;4.70;;;14.50;99.90;;;;;;5044298;28;20057;-70
2021/08/04 03:36:25;;;;;;;8.82;4.43;;;14.50;99.90;;;;;;5029807;28;20040;-70
2021/08/04 03:38:50;;;;;;;7.07;4.00;;;14.50;99.90;;;;;;5059731;28;20115;-70
2021/08/04 03:41:20;;;;;;;6.35;4.13;;;14.40;99.90;;;;;;5045324;28;20757;-70
2021/08/04 03:43:46;;;;;;;7.35;3.97;;;14.40;99.90;;;;;;5028522;28;20039;-70
2021/08/04 03:46:12;;;;;;;7.22;4.45;;;14.40;99.90;;;;;;5046216;28;20032;-70
2021/08/04 03:48:39;;;;;;;8.40;4.88;;;14.40;99.90;;;;;;5033418;28;20156;-70
2021/08/04 03:51:05;;;;;;;8.48;4.72;;;14.50;99.90;;;;;;5049562;28;20879;-70
2021/08/04 03:53:34;;;;;;;11.48;5.15;;;14.50;99.90;;;;;;5031110;28;20108;-70
2021/08/04 03:55:59;;;;;;;6.22;4.10;;;14.50;99.90;;;;;;5064799;28;20148;-70
2021/08/04 03:58:25;;;;;;;8.10;4.75;;;14.50;99.90;;;;;;5064377;28;20526;-70
2021/08/04 04:00:55;;;;;;;11.88;5.22;;;14.50;99.90;;;;;;5030975;28;20032;-70
2021/08/04 04:03:21;;;;;;;16.48;5.68;;;14.50;99.90;;;;;;5049227;28;20095;-70
2021/08/04 04:05:46;;;;;;;16.20;6.10;;;14.50;99.90;;;;;;5064517;28;20534;-69
2021/08/04 04:08:14;;;;;;;23.10;6.78;;;14.50;99.90;;;;;;5049264;28;20043;-70
2021/08/04 04:10:40;;;;;;;18.27;7.10;;;14.50;99.90;;;;;;5048928;28;20021;-70
2021/08/04 04:13:08;;;;;;;14.85;6.18;;;14.50;99.90;;;;;;5049606;28;20040;-70
2021/08/04 04:15:36;;;;;;;9.68;5.82;;;14.50;99.90;;;;;;5031837;28;20363;-70
2021/08/04 04:18:01;;;;;;;10.65;5.55;;;14.50;99.90;;;;;;5030038;28;20037;-70
2021/08/04 04:20:27;;;;;;;11.75;6.72;;;14.50;99.90;;;;;;5065325;28;20086;-70
2021/08/04 04:22:53;;;;;;;10.65;5.90;;;14.40;99.90;;;;;;5048610;28;20040;-70
2021/08/04 04:25:18;;;;;;;11.95;6.00;;;14.50;99.90;;;;;;5048678;28;20516;-70
2021/08/04 04:27:44;;;;;;;11.60;7.10;;;14.50;99.90;;;;;;5048694;28;20158;-69
2021/08/04 04:30:10;;;;;;;16.15;7.00;;;14.50;99.90;;;;;;5049475;28;20390;-70
2021/08/04 04:32:38;;;;;;;18.40;7.80;;;14.50;99.90;;;;;;5048345;28;20304;-70
2021/08/04 04:35:04;;;;;;;21.08;7.57;;;14.50;99.90;;;;;;5032317;28;20793;-70
2021/08/04 04:37:32;;;;;;;12.48;6.93;;;14.50;99.90;;;;;;5064534;28;20033;-70
2021/08/04 04:39:58;;;;;;;16.27;7.18;;;14.60;99.90;;;;;;5048507;28;20084;-70
2021/08/04 04:42:26;;;;;;;42.78;7.78;;;14.60;99.90;;;;;;5047052;28;20131;-70
2021/08/04 04:44:52;;;;;;;20.58;7.22;;;14.60;99.90;;;;;;5065162;28;20372;-70
2021/08/04 04:47:17;;;;;;;50.05;8.60;;;14.60;99.90;;;;;;5048477;28;20040;-70
2021/08/04 04:49:43;;;;;;;22.98;7.50;;;14.60;99.90;;;;;;5048334;28;20107;-70
2021/08/04 04:52:11;;;;;;;19.73;6.68;;;14.60;99.90;;;;;;5048132;28;20381;-70
2021/08/04 04:54:41;;;;;;;9.90;6.40;;;14.60;99.90;;;;;;5048481;28;20048;-70
2021/08/04 04:57:07;;;;;;;23.20;6.63;;;14.60;99.90;;;;;;5049205;28;20044;-70
2021/08/04 04:59:32;;;;;;;12.93;7.00;;;14.70;99.90;;;;;;5047204;28;20048;-70
2021/08/04 05:02:00;;;;;;;11.15;6.22;;;14.70;99.90;;;;;;5048899;28;21831;-70
2021/08/04 05:04:26;;;;;;;7.32;5.47;;;14.70;99.90;;;;;;5047327;28;20279;-70
2021/08/04 05:06:52;;;;;;;8.35;4.95;;;14.70;99.90;;;;;;5015400;28;20593;-71
2021/08/04 05:09:19;;;;;;;7.72;5.18;;;14.80;99.90;;;;;;5048412;28;20044;-70
2021/08/04 05:11:47;;;;;;;7.65;4.93;;;14.80;99.90;;;;;;5030542;28;20029;-70
2021/08/04 05:14:15;;;;;;;8.20;5.20;;;14.80;99.90;;;;;;5048095;28;20056;-70
2021/08/04 05:16:41;;;;;;;6.97;4.72;;;14.90;99.90;;;;;;5048827;28;20040;-70
2021/08/04 05:19:06;;;;;;;7.20;4.70;;;14.90;99.90;;;;;;5047658;28;20039;-70
2021/08/04 05:21:32;;;;;;;6.78;4.72;;;14.90;99.90;;;;;;5048384;28;21829;-70
2021/08/04 05:23:58;;;;;;;7.75;5.40;;;15.00;99.90;;;;;;5046984;28;20028;-71
2021/08/04 05:26:26;;;;;;;9.57;5.50;;;15.00;99.90;;;;;;5048585;28;20061;-71
2021/08/04 05:28:57;;;;;;;6.93;5.28;;;15.00;99.90;;;;;;5047362;28;20033;-71
2021/08/04 05:31:22;;;;;;;6.53;5.10;;;15.00;99.90;;;;;;5064580;28;20020;-70
2021/08/04 05:33:48;;;;;;;6.95;4.85;;;15.10;99.90;;;;;;5047957;28;21002;-71
2021/08/04 05:36:13;;;;;;;8.70;5.47;;;15.10;99.90;;;;;;5046546;28;20025;-71
2021/08/04 05:38:39;;;;;;;8.43;5.80;;;15.10;99.90;;;;;;5047769;28;20028;-70
2021/08/04 05:41:07;;;;;;;8.13;5.80;;;15.20;99.90;;;;;;5046783;28;20024;-70
2021/08/04 05:43:35;;;;;;;8.05;5.22;;;15.20;99.90;;;;;;5048493;28;20116;-70
2021/08/04 05:46:02;;;;;;;6.68;5.20;;;15.20;99.90;;;;;;5047111;28;20033;-70
2021/08/04 05:48:30;;;;;;;14.25;4.95;;;15.30;99.90;;;;;;5047628;28;20036;-70
2021/08/04 05:50:56;;;;;;;8.43;5.10;;;15.30;99.90;;;;;;5012931;28;20033;-70
2021/08/04 05:53:22;;;;;;;7.22;4.80;;;15.30;99.90;;;;;;5028229;28;20029;-70
2021/08/04 05:55:47;;;;;;;16.35;5.55;;;15.30;99.90;;;;;;5047067;28;20479;-71
2021/08/04 05:58:13;;;;;;;9.30;5.90;;;15.30;99.90;;;;;;5030025;28;20112;-70
2021/08/04 06:00:38;;;;;;;7.25;5.80;;;15.30;99.90;;;;;;5029869;28;20032;-71
2021/08/04 06:03:06;;;;;;;7.22;4.95;;;15.30;99.90;;;;;;5046943;28;20985;-70
2021/08/04 06:05:34;;;;;;;9.32;5.25;;;15.40;99.90;;;;;;5047191;28;20041;-70
2021/08/04 06:08:00;;;;;;;10.65;6.93;;;15.40;99.90;;;;;;5046604;28;20037;-71
2021/08/04 06:10:28;;;;;;;12.27;7.22;;;15.40;99.90;;;;;;5032776;28;20037;-71
2021/08/04 06:12:53;;;;;;;11.98;8.23;;;15.40;99.90;;;;;;5028548;28;20025;-74
2021/08/04 06:15:19;;;;;;;12.70;7.05;;;15.40;99.90;;;;;;5030717;28;20037;-71
2021/08/04 06:17:45;;;;;;;13.18;8.77;;;15.50;99.90;;;;;;5045730;28;20040;-70
2021/08/04 06:20:13;;;;;;;11.13;8.20;;;15.50;99.90;;;;;;5045919;28;20079;-70
2021/08/04 06:22:39;;;;;;;16.88;9.45;;;15.60;99.90;;;;;;5027137;28;20037;-74
2021/08/04 06:25:05;;;;;;;18.20;10.07;;;15.60;99.90;;;;;;5044363;28;20377;-67
2021/08/04 06:27:35;;;;;;;12.40;9.82;;;15.70;99.90;;;;;;5044736;28;20033;-68
2021/08/04 06:30:04;;;;;;;15.80;10.40;;;15.70;99.90;;;;;;5045233;28;20107;-70
2021/08/04 06:32:30;;;;;;;13.48;9.95;;;15.70;99.90;;;;;;5027054;28;20132;-70
2021/08/04 06:34:57;;;;;;;13.70;10.85;;;15.80;99.90;;;;;;5045345;28;20032;-70
2021/08/04 06:37:25;;;;;;;12.13;9.25;;;15.80;99.90;;;;;;5026587;28;20040;-70
2021/08/04 06:39:51;;;;;;;14.50;10.80;;;15.90;99.90;;;;;;5043991;28;20550;-70
2021/08/04 06:42:24;;;;;;;21.40;17.67;;;15.90;99.90;;;;;;5026968;28;20501;-70
2021/08/04 06:44:50;;;;;;;22.77;18.60;;;16.10;99.90;;;;;;5060261;28;20591;-70
2021/08/04 06:47:19;;;;;;;23.70;18.77;;;16.00;99.90;;;;;;5044532;28;20094;-68
2021/08/04 06:49:44;;;;;;;25.70;20.25;;;16.00;99.90;;;;;;5045651;28;20086;-67
2021/08/04 06:52:14;;;;;;;24.88;19.63;;;16.10;99.90;;;;;;5027997;28;20129;-68
2021/08/04 06:54:45;;;;;;;22.95;19.92;;;16.10;99.90;;;;;;5026368;28;20065;-71
2021/08/04 06:57:10;;;;;;;23.02;19.73;;;16.20;99.90;;;;;;5044614;28;20033;-71
2021/08/04 06:59:36;;;;;;;20.70;18.35;;;16.30;99.90;;;;;;5045219;28;20766;-71
2021/08/04 07:02:06;;;;;;;19.63;17.52;;;16.30;99.90;;;;;;5048741;28;20063;-71
2021/08/04 07:04:35;;;;;;;23.05;19.30;;;16.50;99.90;;;;;;5044437;28;20040;-71
2021/08/04 07:07:04;;;;;;;23.25;19.13;;;16.60;99.90;;;;;;5028332;28;20029;-71
2021/08/04 07:09:35;;;;;;;22.13;18.90;;;16.60;99.90;;;;;;5004147;28;20571;-71
2021/08/04 07:12:02;;;;;;;21.67;18.73;;;16.70;99.90;;;;;;5045255;28;20375;-70
2021/08/04 07:14:28;;;;;;;22.38;19.20;;;16.70;99.90;;;;;;5028361;28;20119;-71
2021/08/04 07:16:54;;;;;;;23.55;19.90;;;16.80;99.90;;;;;;5045048;28;20039;-71
2021/08/04 07:19:22;;;;;;;23.38;19.92;;;16.80;99.90;;;;;;5013089;28;20801;-70
2021/08/04 07:21:50;;;;;;;26.00;20.35;;;16.80;99.90;;;;;;5043829;28;20047;-71
2021/08/04 07:24:16;;;;;;;21.80;19.35;;;16.90;99.90;;;;;;5029404;28;20075;-71
2021/08/04 07:26:42;;;;;;;19.20;17.15;;;17.00;99.90;;;;;;5048729;28;20024;-71
2021/08/04 07:29:10;;;;;;;22.27;18.52;;;17.10;99.90;;;;;;5047854;28;20060;-70
2021/08/04 07:31:35;;;;;;;20.75;18.15;;;17.10;99.90;;;;;;5048465;28;20848;-71
2021/08/04 07:34:01;;;;;;;19.15;17.00;;;17.00;99.90;;;;;;5047343;28;20025;-70
2021/08/04 07:36:27;;;;;;;22.13;17.30;;;17.20;99.90;;;;;;5034371;28;20408;-71
2021/08/04 07:38:53;;;;;;;19.70;17.60;;;17.20;99.90;;;;;;5030719;28;20036;-72
2021/08/04 07:41:19;;;;;;;23.20;16.90;;;17.20;99.90;;;;;;5013757;28;20029;-70
2021/08/04 07:43:45;;;;;;;26.90;17.83;;;17.20;99.90;;;;;;5048100;28;20131;-70
2021/08/04 07:46:11;;;;;;;19.15;17.13;;;17.10;99.90;;;;;;5030559;28;20036;-71
2021/08/04 07:48:37;;;;;;;18.23;15.98;;;17.20;99.90;;;;;;5030397;28;20107;-70
2021/08/04 07:51:03;;;;;;;17.75;15.55;;;17.30;99.90;;;;;;5047917;28;20040;-70
2021/08/04 07:53:31;;;;;;;19.48;17.48;;;17.40;99.90;;;;;;5047853;28;20060;-70
2021/08/04 07:55:57;;;;;;;19.52;17.48;;;17.40;99.90;;;;;;5063104;28;20032;-69
2021/08/04 07:58:27;;;;;;;18.67;16.50;;;17.30;99.90;;;;;;5048046;28;20076;-69
2021/08/04 08:00:53;;;;;;;18.77;16.77;;;17.40;99.90;;;;;;5030786;28;20032;-69
2021/08/04 08:03:21;;;;;;;24.98;17.70;;;17.40;99.90;;;;;;5048104;28;20048;-69
2021/08/04 08:05:47;;;;;;;18.40;16.40;;;17.50;99.90;;;;;;5012439;28;20028;-70
2021/08/04 08:08:13;;;;;;;19.25;17.13;;;17.50;99.90;;;;;;5047795;28;20075;-68
2021/08/04 08:10:41;;;;;;;22.38;18.27;;;17.60;99.90;;;;;;5048363;28;20116;-67
2021/08/04 08:13:09;;;;;;;21.60;19.30;;;17.60;99.90;;;;;;5062525;28;20037;-68
2021/08/04 08:15:37;;;;;;;21.38;18.17;;;17.80;99.90;;;;;;5030145;28;20124;-70
2021/08/04 08:18:11;;;;;;;18.25;16.35;;;17.80;99.90;;;;;;5029445;28;20033;-69
2021/08/04 08:20:40;;;;;;;18.10;16.00;;;18.00;99.90;;;;;;5048759;28;20070;-70
2021/08/04 08:23:06;;;;;;;17.80;15.90;;;18.10;99.90;;;;;;5030824;28;20038;-69
2021/08/04 08:25:32;;;;;;;17.38;15.57;;;18.20;99.90;;;;;;5012805;28;20037;-69
2021/08/04 08:27:57;;;;;;;15.43;13.75;;;18.10;99.90;;;;;;5045601;28;20024;-69
2021/08/04 08:30:23;;;;;;;18.10;14.77;;;18.10;99.90;;;;;;5030489;28;20060;-69
2021/08/04 08:32:49;;;;;;;16.08;14.38;;;18.10;99.90;;;;;;5030438;28;20029;-69
2021/08/04 08:35:14;;;;;;;16.52;14.68;;;18.10;99.90;;;;;;5046693;28;20052;-69
2021/08/04 08:37:47;;;;;;;15.40;13.80;;;18.00;99.90;;;;;;5047413;28;20401;-69
2021/08/04 08:40:17;;;;;;;15.50;13.80;;;18.00;99.90;;;;;;5047246;28;20024;-69
2021/08/04 08:42:48;;;;;;;17.88;15.95;;;18.20;99.90;;;;;;5046607;28;20024;-69
2021/08/04 08:45:14;;;;;;;19.08;17.08;;;18.40;99.90;;;;;;5028393;28;20033;-67
2021/08/04 08:47:42;;;;;;;22.90;20.52;;;18.60;99.90;;;;;;5062222;28;20910;-67
2021/08/04 08:50:09;;;;;;;17.30;14.63;;;18.80;99.90;;;;;;5017529;28;20703;-67
2021/08/04 08:52:37;;;;;;;17.23;15.15;;;18.90;99.90;;;;;;5030203;28;20033;-69
2021/08/04 08:55:06;;;;;;;16.40;14.75;;;19.00;99.90;;;;;;5031446;28;20060;-69
2021/08/04 08:57:34;;;;;;;15.82;14.23;;;19.20;99.90;;;;;;5048677;28;20489;-69
2021/08/04 09:00:05;;;;;;;15.63;13.80;;;19.30;99.90;;;;;;5047368;28;22006;-69
2021/08/04 09:02:31;;;;;;;14.13;12.57;;;19.40;99.90;;;;;;5046258;28;20029;-69
2021/08/04 09:05:00;;;;;;;14.77;13.10;;;19.60;99.90;;;;;;5047760;28;20099;-69
2021/08/04 09:07:38;;;;;;;13.07;11.77;;;19.60;99.90;;;;;;5045960;28;20037;-69
2021/08/04 09:10:25;;;;;;;12.55;11.35;;;19.50;99.90;;;;;;5047306;28;20043;-69
2021/08/04 09:12:54;;;;;;;14.10;12.65;;;19.50;99.90;;;;;;5046620;28;20028;-69
2021/08/04 09:15:35;;;;;;;15.10;13.18;;;19.40;99.90;;;;;;5030043;28;20769;-69
2021/08/04 09:18:03;;;;;;;14.27;12.88;;;19.30;99.90;;;;;;5061523;28;20028;-69
2021/08/04 09:20:30;;;;;;;13.15;11.75;;;19.20;99.90;;;;;;5012638;28;20377;-69
2021/08/04 09:23:00;;;;;;;12.20;10.95;;;19.20;99.90;;;;;;5029497;28;20120;-68
2021/08/04 09:25:28;;;;;;;10.55;9.55;;;19.10;99.90;;;;;;5045777;28;20029;-68
2021/08/04 09:27:57;;;;;;;10.52;9.50;;;19.10;99.90;;;;;;5010855;28;20090;-68
2021/08/04 09:30:32;;;;;;;10.93;9.82;;;19.20;99.90;;;;;;5046208;28;20037;-68
2021/08/04 09:33:21;;;;;;;9.25;8.27;;;19.10;99.90;;;;;;5045079;28;20040;-68
2021/08/04 09:35:56;;;;;;;9.73;8.80;;;19.20;99.90;;;;;;5032853;28;20044;-68
2021/08/04 09:38:22;;;;;;;8.85;7.95;;;19.20;99.90;;;;;;5044295;28;20103;-68
2021/08/04 09:41:07;;;;;;;12.45;11.18;;;19.10;99.90;;;;;;5045577;28;20421;-68
2021/08/04 09:43:33;;;;;;;8.95;8.05;;;19.20;99.90;;;;;;5030233;28;20038;-68
2021/08/04 09:45:58;;;;;;;9.48;8.27;;;19.20;99.90;;;;;;5027373;28;20041;-69
2021/08/04 09:48:28;;;;;;;9.10;8.20;;;19.20;99.90;;;;;;5045500;28;20060;-68
2021/08/04 09:50:58;;;;;;;10.02;8.73;;;19.10;99.90;;;;;;5044954;28;20635;-69
2021/08/04 09:53:36;;;;;;;10.23;9.23;;;19.10;99.90;;;;;;5046498;28;20584;-67
2021/08/04 09:56:15;;;;;;;9.70;8.75;;;19.10;99.90;;;;;;5060534;28;20699;-69
2021/08/04 09:58:46;;;;;;;11.48;10.00;;;19.10;99.90;;;;;;5027282;28;20075;-69
2021/08/04 10:01:16;;;;;;;12.80;11.48;;;19.10;99.90;;;;;;5027638;28;20064;-68
2021/08/04 10:03:58;;;;;;;10.55;9.55;;;19.00;99.90;;;;;;5012126;28;20698;-69
2021/08/04 10:06:23;;;;;;;;;;;19.10;99.90;;;;;;5046551;28;20075;-69
2021/08/04 10:08:54;;;;;;;10.15;9.05;;;19.00;99.90;;;;;;5046279;28;20409;-69
2021/08/04 10:11:22;;;;;;;9.45;8.55;;;19.00;99.90;;;;;;5045363;28;20369;-69
2021/08/04 10:13:51;;;;;;;11.25;10.15;;;19.10;99.90;;;;;;5061582;28;20118;-68
2021/08/04 10:16:20;;;;;;;13.20;11.70;;;19.10;99.90;;;;;;5024317;28;20055;-68
2021/08/04 10:18:45;;;;;;;14.55;12.65;;;19.20;99.90;;;;;;5011468;28;20060;-69
2021/08/04 10:21:11;;;;;;;12.93;11.73;;;19.30;99.90;;;;;;5027246;28;20116;-69
2021/08/04 10:23:40;;;;;;;13.43;12.02;;;19.40;99.90;;;;;;5046837;28;20035;-69
2021/08/04 10:26:13;;;;;;;12.18;10.98;;;19.40;99.90;;;;;;5027377;28;20033;-68
2021/08/04 10:28:40;;;;;;;11.60;10.40;;;19.50;99.90;;;;;;5043798;28;20405;-69
2021/08/04 10:31:09;;;;;;;12.18;10.88;;;19.40;99.90;;;;;;5045417;28;20029;-69
2021/08/04 10:33:36;;;;;;;11.50;10.35;;;19.40;99.90;;;;;;5043966;28;20033;-69
2021/08/04 10:36:08;;;;;;;11.45;9.90;;;19.40;99.90;;;;;;5027329;28;20037;-69
2021/08/04 10:38:38;;;;;;;11.75;10.55;;;19.40;99.90;;;;;;5044326;28;20450;-69
2021/08/04 10:41:20;;;;;;;11.80;10.60;;;19.40;99.90;;;;;;4995349;28;20029;-69
2021/08/04 10:43:55;;;;;;;9.80;8.80;;;19.40;99.90;;;;;;5045307;28;20063;-69
2021/08/04 10:46:31;;;;;;;9.60;8.48;;;19.40;99.90;;;;;;5044694;28;20031;-69
2021/08/04 10:49:03;;;;;;;8.95;8.15;;;19.40;99.90;;;;;;5045073;28;20449;-69
2021/08/04 10:51:29;;;;;;;8.18;7.25;;;19.50;99.90;;;;;;5026496;28;20029;-69
2021/08/04 10:54:02;;;;;;;9.23;7.70;;;19.50;99.90;;;;;;5061410;28;20217;-68
2021/08/04 10:56:36;;;;;;;10.73;9.73;;;19.60;99.90;;;;;;5045165;28;20465;-69
2021/08/04 10:59:13;;;;;;;9.95;9.00;;;19.70;99.90;;;;;;5048778;28;20053;-69
2021/08/04 11:01:53;;;;;;;10.23;9.23;;;19.70;99.90;;;;;;5048825;28;20067;-69
2021/08/04 11:04:28;;;;;;;9.88;8.88;;;19.60;99.90;;;;;;5064039;28;20056;-67
2021/08/04 11:07:20;;;;;;;10.38;9.38;;;19.70;99.90;;;;;;5047367;28;20099;-67
2021/08/04 11:09:49;;;;;;;10.50;9.50;;;19.70;99.90;;;;;;5048794;28;20040;-69
2021/08/04 11:12:40;;;;;;;10.70;9.60;;;19.60;99.90;;;;;;5049281;28;20044;-69
2021/08/04 11:15:19;;;;;;;10.03;9.03;;;19.50;99.90;;;;;;5049584;28;20033;-69
2021/08/04 11:18:08;;;;;;;8.75;7.90;;;19.50;99.90;;;;;;5066220;28;20278;-70
2021/08/04 11:20:35;;;;;;;8.73;7.25;;;19.40;99.90;;;;;;5048908;28;20056;-69
2021/08/04 11:23:05;;;;;;;7.72;6.90;;;19.40;99.90;;;;;;5030698;28;20044;-69
2021/08/04 11:25:38;;;;;;;8.40;7.60;;;19.40;99.90;;;;;;4700361;28;10000527;-69
2021/08/04 11:28:08;;;;;;;8.52;7.43;;;19.40;99.90;;;;;;4698205;28;9999994;-69
2021/08/04 11:30:34;;;;;;;7.28;6.57;;;19.30;99.90;;;;;;5013251;28;20619;-69
2021/08/04 11:33:18;;;;;;;8.35;7.43;;;19.30;99.90;;;;;;5063413;28;20082;-69
2021/08/04 11:36:05;;;;;;;7.32;6.63;;;19.30;99.90;;;;;;5047875;28;20441;-69
2021/08/04 11:39:01;;;;;;;7.82;7.03;;;19.30;99.90;;;;;;5048582;28;22316;-70
2021/08/04 11:41:32;;;;;;;7.43;6.72;;;19.30;99.90;;;;;;5014832;28;20047;-70
2021/08/04 11:44:09;;;;;;;7.40;6.70;;;19.20;99.90;;;;;;5047562;28;20035;-69
2021/08/04 11:46:43;;;;;;;7.57;6.78;;;19.10;99.90;;;;;;5045968;28;20043;-70
2021/08/04 11:49:14;;;;;;;8.10;7.30;;;19.10;99.90;;;;;;5062464;28;20035;-72
2021/08/04 11:51:41;;;;;;;8.37;6.90;;;19.10;99.90;;;;;;4699171;28;10001140;-67
2021/08/04 11:54:07;;;;;;;8.50;7.50;;;19.10;99.90;;;;;;5046371;28;20036;-67
2021/08/04 11:56:35;;;;;;;9.32;7.45;;;19.10;99.90;;;;;;5027791;28;20033;-72
2021/08/04 11:59:02;;;;;;;9.68;7.95;;;19.10;99.90;;;;;;5028700;28;20041;-71
2021/08/04 12:01:28;;;;;;;9.65;8.65;;;19.10;99.90;;;;;;5028855;28;20656;-71
2021/08/04 12:04:10;;;;;;;10.40;9.35;;;19.10;99.90;;;;;;5030131;28;20141;-71
2021/08/04 12:06:38;;;;;;;;;;;19.10;99.90;;;;;;5030461;28;20862;-72
2021/08/04 12:09:20;;;;;;;10.65;9.55;;;19.10;99.90;;;;;;5028906;28;20009;-71
2021/08/04 12:11:49;;;;;;;12.40;11.15;;;19.10;99.90;;;;;;5048200;28;20615;-71
2021/08/04 12:14:19;;;;;;;10.25;9.25;;;19.10;99.90;;;;;;5023149;28;20454;-71
2021/08/04 12:16:51;;;;;;;10.93;9.82;;;19.10;99.90;;;;;;5031515;28;20032;-71
2021/08/04 12:19:39;;;;;;;11.35;10.02;;;19.10;99.90;;;;;;5048220;28;20960;-71
2021/08/04 12:22:17;;;;;;;10.90;9.82;;;19.10;99.90;;;;;;5047758;28;20033;-71
2021/08/04 12:24:55;;;;;;;11.65;10.50;;;19.00;99.90;;;;;;5047025;28;20094;-71
2021/08/04 12:27:39;;;;;;;11.07;9.98;;;19.00;99.90;;;;;;5030775;28;20033;-71
2021/08/04 12:30:15;;;;;;;12.90;11.60;;;19.00;99.90;;;;;;5012990;28;20817;-71
2021/08/04 12:33:17;;;;;;;11.80;10.60;;;18.90;99.90;;;;;;5048170;28;20029;-71
2021/08/04 12:36:01;;;;;;;14.52;13.13;;;18.90;99.90;;;;;;5047220;28;20076;-71
2021/08/04 12:38:26;;;;;;;12.23;11.02;;;18.90;99.90;;;;;;5031537;28;20087;-71
2021/08/04 12:40:53;;;;;;;12.38;11.18;;;18.80;99.90;;;;;;5029110;28;20120;-71
2021/08/04 12:43:22;;;;;;;12.07;10.88;;;18.90;99.90;;;;;;5029208;28;20041;-71
2021/08/04 12:45:52;;;;;;;11.25;10.20;;;18.90;99.90;;;;;;5029892;28;20059;-71